sensor_id;sensor_type;location;lat;lon;timestamp;P1;durP1;ratioP1;P2;durP2;ratioP2
44139;SDS011;29803;51.048;4.686;2022-09-02T00:00:22;5.40;;;3.65;;
44139;SDS011;29803;51.048;4.686;2022-09-02T00:02:53;7.22;;;4.07;;
44139;SDS011;29803;51.048;4.686;2022-09-02T00:05:24;11.70;;;4.30;;
44139;SDS011;29803;51.048;4.686;2022-09-02T00:07:55;10.40;;;4.35;;
44139;SDS011;29803;51.048;4.686;2022-09-02T00:10:25;12.38;;;4.53;;
44139;SDS011;29803;51.048;4.686;2022-09-02T00:12:56;8.75;;;4.03;;
44139;SDS011;29803;51.048;4.686;2022-09-02T00:15:26;8.57;;;4.00;;
44139;SDS011;29803;51.048;4.686;2022-09-02T00:17:57;11.60;;;4.82;;
44139;SDS011;29803;51.048;4.686;2022-09-02T00:20:28;9.40;;;4.10;;
44139;SDS011;29803;51.048;4.686;2022-09-02T00:22:59;14.07;;;4.35;;
44139;SDS011;29803;51.048;4.686;2022-09-02T00:25:30;10.85;;;3.90;;
44139;SDS011;29803;51.048;4.686;2022-09-02T00:28:01;8.38;;;3.88;;
44139;SDS011;29803;51.048;4.686;2022-09-02T00:30:31;8.85;;;4.40;;
44139;SDS011;29803;51.048;4.686;2022-09-02T00:33:04;12.05;;;4.00;;
44139;SDS011;29803;51.048;4.686;2022-09-02T00:35:35;7.50;;;3.67;;
44139;SDS011;29803;51.048;4.686;2022-09-02T00:38:06;10.05;;;4.00;;
44139;SDS011;29803;51.048;4.686;2022-09-02T00:40:37;10.60;;;4.10;;
44139;SDS011;29803;51.048;4.686;2022-09-02T00:43:08;8.75;;;4.28;;
44139;SDS011;29803;51.048;4.686;2022-09-02T00:45:39;8.90;;;4.13;;
44139;SDS011;29803;51.048;4.686;2022-09-02T00:48:09;11.63;;;4.32;;
44139;SDS011;29803;51.048;4.686;2022-09-02T00:50:40;8.73;;;4.20;;
44139;SDS011;29803;51.048;4.686;2022-09-02T00:53:11;10.23;;;4.50;;
44139;SDS011;29803;51.048;4.686;2022-09-02T00:55:43;12.10;;;5.20;;
44139;SDS011;29803;51.048;4.686;2022-09-02T00:58:19;12.05;;;4.60;;
44139;SDS011;29803;51.048;4.686;2022-09-02T01:00:54;15.27;;;4.93;;
44139;SDS011;29803;51.048;4.686;2022-09-02T01:03:27;8.43;;;5.00;;
44139;SDS011;29803;51.048;4.686;2022-09-02T01:05:59;10.77;;;4.85;;
44139;SDS011;29803;51.048;4.686;2022-09-02T01:08:45;10.90;;;4.93;;
44139;SDS011;29803;51.048;4.686;2022-09-02T01:11:18;12.82;;;4.30;;
44139;SDS011;29803;51.048;4.686;2022-09-02T01:13:50;13.02;;;4.57;;
44139;SDS011;29803;51.048;4.686;2022-09-02T01:18:54;10.10;;;4.43;;
44139;SDS011;29803;51.048;4.686;2022-09-02T01:21:46;10.55;;;4.88;;
44139;SDS011;29803;51.048;4.686;2022-09-02T01:24:33;8.10;;;4.47;;
44139;SDS011;29803;51.048;4.686;2022-09-02T01:27:16;7.18;;;4.40;;
44139;SDS011;29803;51.048;4.686;2022-09-02T01:32:45;23.17;;;5.72;;
44139;SDS011;29803;51.048;4.686;2022-09-02T01:35:18;8.48;;;4.47;;
44139;SDS011;29803;51.048;4.686;2022-09-02T01:37:49;14.15;;;5.63;;
44139;SDS011;29803;51.048;4.686;2022-09-02T01:40:25;11.23;;;4.78;;
44139;SDS011;29803;51.048;4.686;2022-09-02T01:43:01;13.57;;;4.38;;
44139;SDS011;29803;51.048;4.686;2022-09-02T01:45:37;14.65;;;4.90;;
44139;SDS011;29803;51.048;4.686;2022-09-02T01:48:09;11.68;;;5.05;;
44139;SDS011;29803;51.048;4.686;2022-09-02T01:50:42;9.07;;;4.80;;
44139;SDS011;29803;51.048;4.686;2022-09-02T01:53:17;9.88;;;4.78;;
44139;SDS011;29803;51.048;4.686;2022-09-02T01:55:48;8.43;;;4.88;;
44139;SDS011;29803;51.048;4.686;2022-09-02T01:58:19;9.65;;;5.10;;
44139;SDS011;29803;51.048;4.686;2022-09-02T02:00:50;6.93;;;4.78;;
44139;SDS011;29803;51.048;4.686;2022-09-02T02:03:21;14.52;;;5.63;;
44139;SDS011;29803;51.048;4.686;2022-09-02T02:05:52;9.38;;;4.43;;
44139;SDS011;29803;51.048;4.686;2022-09-02T02:08:22;8.27;;;4.10;;
44139;SDS011;29803;51.048;4.686;2022-09-02T02:10:53;8.10;;;4.20;;
44139;SDS011;29803;51.048;4.686;2022-09-02T02:13:24;12.95;;;4.25;;
44139;SDS011;29803;51.048;4.686;2022-09-02T02:15:55;7.57;;;3.72;;
44139;SDS011;29803;51.048;4.686;2022-09-02T02:18:26;11.75;;;4.10;;
44139;SDS011;29803;51.048;4.686;2022-09-02T02:20:58;7.38;;;4.80;;
44139;SDS011;29803;51.048;4.686;2022-09-02T02:23:29;8.68;;;3.80;;
44139;SDS011;29803;51.048;4.686;2022-09-02T02:26:00;15.05;;;4.57;;
44139;SDS011;29803;51.048;4.686;2022-09-02T02:28:30;7.53;;;4.15;;
44139;SDS011;29803;51.048;4.686;2022-09-02T02:31:01;10.25;;;3.85;;
44139;SDS011;29803;51.048;4.686;2022-09-02T02:33:32;6.43;;;4.05;;
44139;SDS011;29803;51.048;4.686;2022-09-02T02:36:05;8.85;;;4.40;;
44139;SDS011;29803;51.048;4.686;2022-09-02T02:38:37;13.57;;;4.18;;
44139;SDS011;29803;51.048;4.686;2022-09-02T02:41:08;11.30;;;4.75;;
44139;SDS011;29803;51.048;4.686;2022-09-02T02:43:39;22.75;;;4.88;;
44139;SDS011;29803;51.048;4.686;2022-09-02T02:46:11;8.38;;;4.30;;
44139;SDS011;29803;51.048;4.686;2022-09-02T02:48:41;9.32;;;4.43;;
44139;SDS011;29803;51.048;4.686;2022-09-02T02:51:12;10.00;;;4.10;;
44139;SDS011;29803;51.048;4.686;2022-09-02T02:53:43;8.05;;;3.88;;
44139;SDS011;29803;51.048;4.686;2022-09-02T02:56:14;7.18;;;3.88;;
44139;SDS011;29803;51.048;4.686;2022-09-02T02:58:44;7.25;;;4.05;;
44139;SDS011;29803;51.048;4.686;2022-09-02T03:01:15;10.88;;;3.50;;
44139;SDS011;29803;51.048;4.686;2022-09-02T03:03:46;10.05;;;4.10;;
44139;SDS011;29803;51.048;4.686;2022-09-02T03:06:16;9.27;;;3.92;;
44139;SDS011;29803;51.048;4.686;2022-09-02T03:08:46;9.02;;;4.05;;
44139;SDS011;29803;51.048;4.686;2022-09-02T03:11:18;9.05;;;4.00;;
44139;SDS011;29803;51.048;4.686;2022-09-02T03:13:51;6.50;;;3.90;;
44139;SDS011;29803;51.048;4.686;2022-09-02T03:16:22;7.53;;;3.75;;
44139;SDS011;29803;51.048;4.686;2022-09-02T03:18:52;6.05;;;3.15;;
44139;SDS011;29803;51.048;4.686;2022-09-02T03:21:23;11.00;;;4.07;;
44139;SDS011;29803;51.048;4.686;2022-09-02T03:23:54;7.82;;;3.60;;
44139;SDS011;29803;51.048;4.686;2022-09-02T03:26:25;9.90;;;3.85;;
44139;SDS011;29803;51.048;4.686;2022-09-02T03:28:55;8.45;;;3.78;;
44139;SDS011;29803;51.048;4.686;2022-09-02T03:31:26;6.80;;;4.00;;
44139;SDS011;29803;51.048;4.686;2022-09-02T03:33:57;9.48;;;3.85;;
44139;SDS011;29803;51.048;4.686;2022-09-02T03:36:30;9.77;;;3.58;;
44139;SDS011;29803;51.048;4.686;2022-09-02T03:41:35;13.57;;;4.95;;
44139;SDS011;29803;51.048;4.686;2022-09-02T03:44:06;8.48;;;3.42;;
44139;SDS011;29803;51.048;4.686;2022-09-02T03:46:37;7.65;;;3.90;;
44139;SDS011;29803;51.048;4.686;2022-09-02T03:49:08;7.40;;;3.63;;
44139;SDS011;29803;51.048;4.686;2022-09-02T03:51:39;6.97;;;3.40;;
44139;SDS011;29803;51.048;4.686;2022-09-02T03:54:11;11.05;;;4.45;;
44139;SDS011;29803;51.048;4.686;2022-09-02T03:56:41;10.10;;;3.28;;
44139;SDS011;29803;51.048;4.686;2022-09-02T03:59:12;6.93;;;3.78;;
44139;SDS011;29803;51.048;4.686;2022-09-02T04:01:42;6.65;;;3.70;;
44139;SDS011;29803;51.048;4.686;2022-09-02T04:04:14;10.07;;;4.10;;
44139;SDS011;29803;51.048;4.686;2022-09-02T04:06:44;4.88;;;3.35;;
44139;SDS011;29803;51.048;4.686;2022-09-02T04:09:15;7.25;;;3.65;;
44139;SDS011;29803;51.048;4.686;2022-09-02T04:11:45;6.95;;;3.30;;
44139;SDS011;29803;51.048;4.686;2022-09-02T04:14:16;7.90;;;3.53;;
44139;SDS011;29803;51.048;4.686;2022-09-02T04:16:46;7.65;;;3.28;;
44139;SDS011;29803;51.048;4.686;2022-09-02T04:19:17;5.65;;;3.03;;
44139;SDS011;29803;51.048;4.686;2022-09-02T04:21:47;6.90;;;3.30;;
44139;SDS011;29803;51.048;4.686;2022-09-02T04:24:18;5.75;;;3.20;;
44139;SDS011;29803;51.048;4.686;2022-09-02T04:26:48;5.93;;;3.53;;
44139;SDS011;29803;51.048;4.686;2022-09-02T04:29:19;9.63;;;3.38;;
44139;SDS011;29803;51.048;4.686;2022-09-02T04:31:49;8.48;;;3.95;;
44139;SDS011;29803;51.048;4.686;2022-09-02T04:34:20;8.10;;;3.70;;
44139;SDS011;29803;51.048;4.686;2022-09-02T04:36:50;7.68;;;3.05;;
44139;SDS011;29803;51.048;4.686;2022-09-02T04:39:22;10.45;;;3.92;;
44139;SDS011;29803;51.048;4.686;2022-09-02T04:41:52;13.32;;;3.20;;
44139;SDS011;29803;51.048;4.686;2022-09-02T04:44:23;8.90;;;3.42;;
44139;SDS011;29803;51.048;4.686;2022-09-02T04:46:54;8.85;;;3.20;;
44139;SDS011;29803;51.048;4.686;2022-09-02T04:49:25;8.50;;;3.20;;
44139;SDS011;29803;51.048;4.686;2022-09-02T04:51:55;7.85;;;3.17;;
44139;SDS011;29803;51.048;4.686;2022-09-02T04:54:26;4.57;;;2.88;;
44139;SDS011;29803;51.048;4.686;2022-09-02T04:56:57;7.63;;;2.85;;
44139;SDS011;29803;51.048;4.686;2022-09-02T04:59:27;7.95;;;2.75;;
44139;SDS011;29803;51.048;4.686;2022-09-02T05:01:58;5.57;;;2.72;;
44139;SDS011;29803;51.048;4.686;2022-09-02T05:04:30;9.35;;;3.15;;
44139;SDS011;29803;51.048;4.686;2022-09-02T05:07:01;11.52;;;2.88;;
44139;SDS011;29803;51.048;4.686;2022-09-02T05:09:32;8.15;;;3.10;;
44139;SDS011;29803;51.048;4.686;2022-09-02T05:12:03;8.70;;;3.10;;
44139;SDS011;29803;51.048;4.686;2022-09-02T05:14:35;7.55;;;2.97;;
44139;SDS011;29803;51.048;4.686;2022-09-02T05:17:05;6.47;;;3.38;;
44139;SDS011;29803;51.048;4.686;2022-09-02T05:19:36;8.73;;;2.83;;
44139;SDS011;29803;51.048;4.686;2022-09-02T05:22:06;9.73;;;3.10;;
44139;SDS011;29803;51.048;4.686;2022-09-02T05:24:37;5.35;;;2.85;;
44139;SDS011;29803;51.048;4.686;2022-09-02T05:27:08;8.27;;;3.28;;
44139;SDS011;29803;51.048;4.686;2022-09-02T05:29:38;9.48;;;3.10;;
44139;SDS011;29803;51.048;4.686;2022-09-02T05:32:09;6.82;;;2.90;;
44139;SDS011;29803;51.048;4.686;2022-09-02T05:34:40;7.32;;;3.00;;
44139;SDS011;29803;51.048;4.686;2022-09-02T05:37:10;6.68;;;2.97;;
44139;SDS011;29803;51.048;4.686;2022-09-02T05:39:41;5.78;;;2.85;;
44139;SDS011;29803;51.048;4.686;2022-09-02T05:42:12;6.55;;;2.50;;
44139;SDS011;29803;51.048;4.686;2022-09-02T05:44:42;8.27;;;2.92;;
44139;SDS011;29803;51.048;4.686;2022-09-02T05:47:14;5.60;;;2.72;;
44139;SDS011;29803;51.048;4.686;2022-09-02T05:49:44;7.07;;;3.00;;
44139;SDS011;29803;51.048;4.686;2022-09-02T05:52:15;6.45;;;3.17;;
44139;SDS011;29803;51.048;4.686;2022-09-02T05:54:47;6.53;;;2.80;;
44139;SDS011;29803;51.048;4.686;2022-09-02T05:57:18;8.05;;;2.90;;
44139;SDS011;29803;51.048;4.686;2022-09-02T05:59:49;9.52;;;3.17;;
44139;SDS011;29803;51.048;4.686;2022-09-02T06:02:25;9.68;;;3.15;;
44139;SDS011;29803;51.048;4.686;2022-09-02T06:04:55;11.50;;;3.25;;
44139;SDS011;29803;51.048;4.686;2022-09-02T06:07:26;7.55;;;3.47;;
44139;SDS011;29803;51.048;4.686;2022-09-02T06:09:57;5.55;;;3.35;;
44139;SDS011;29803;51.048;4.686;2022-09-02T06:12:27;11.27;;;3.20;;
44139;SDS011;29803;51.048;4.686;2022-09-02T06:15:00;8.00;;;3.15;;
44139;SDS011;29803;51.048;4.686;2022-09-02T06:17:31;10.98;;;3.15;;
44139;SDS011;29803;51.048;4.686;2022-09-02T06:20:02;8.48;;;3.30;;
44139;SDS011;29803;51.048;4.686;2022-09-02T06:22:33;9.70;;;3.05;;
44139;SDS011;29803;51.048;4.686;2022-09-02T06:25:04;6.70;;;3.10;;
44139;SDS011;29803;51.048;4.686;2022-09-02T06:27:36;6.57;;;3.15;;
44139;SDS011;29803;51.048;4.686;2022-09-02T06:30:07;16.10;;;2.92;;
44139;SDS011;29803;51.048;4.686;2022-09-02T06:32:38;4.35;;;2.65;;
44139;SDS011;29803;51.048;4.686;2022-09-02T06:35:09;6.57;;;2.83;;
44139;SDS011;29803;51.048;4.686;2022-09-02T06:37:39;4.30;;;2.50;;
44139;SDS011;29803;51.048;4.686;2022-09-02T06:40:11;6.70;;;3.30;;
44139;SDS011;29803;51.048;4.686;2022-09-02T06:42:42;10.27;;;3.22;;
44139;SDS011;29803;51.048;4.686;2022-09-02T06:45:13;6.57;;;2.80;;
44139;SDS011;29803;51.048;4.686;2022-09-02T06:47:43;10.77;;;3.20;;
44139;SDS011;29803;51.048;4.686;2022-09-02T06:50:15;6.22;;;3.00;;
44139;SDS011;29803;51.048;4.686;2022-09-02T06:52:46;7.05;;;3.38;;
44139;SDS011;29803;51.048;4.686;2022-09-02T06:55:17;6.72;;;2.97;;
44139;SDS011;29803;51.048;4.686;2022-09-02T06:57:48;12.55;;;3.33;;
44139;SDS011;29803;51.048;4.686;2022-09-02T07:00:18;9.13;;;3.95;;
44139;SDS011;29803;51.048;4.686;2022-09-02T07:02:49;5.32;;;2.55;;
44139;SDS011;29803;51.048;4.686;2022-09-02T07:05:40;5.60;;;2.72;;
44139;SDS011;29803;51.048;4.686;2022-09-02T07:08:10;3.92;;;2.20;;
44139;SDS011;29803;51.048;4.686;2022-09-02T07:10:41;6.18;;;2.22;;
44139;SDS011;29803;51.048;4.686;2022-09-02T07:13:11;5.93;;;2.53;;
44139;SDS011;29803;51.048;4.686;2022-09-02T07:15:43;6.32;;;2.80;;
44139;SDS011;29803;51.048;4.686;2022-09-02T07:18:13;14.95;;;3.65;;
44139;SDS011;29803;51.048;4.686;2022-09-02T07:20:45;5.53;;;2.83;;
44139;SDS011;29803;51.048;4.686;2022-09-02T07:23:17;9.02;;;2.97;;
44139;SDS011;29803;51.048;4.686;2022-09-02T07:25:47;7.82;;;2.70;;
44139;SDS011;29803;51.048;4.686;2022-09-02T07:28:18;10.65;;;2.75;;
44139;SDS011;29803;51.048;4.686;2022-09-02T07:30:48;7.75;;;2.78;;
44139;SDS011;29803;51.048;4.686;2022-09-02T07:33:19;5.57;;;2.80;;
44139;SDS011;29803;51.048;4.686;2022-09-02T07:35:50;7.38;;;2.35;;
44139;SDS011;29803;51.048;4.686;2022-09-02T07:38:22;6.70;;;3.17;;
44139;SDS011;29803;51.048;4.686;2022-09-02T07:40:52;7.28;;;2.75;;
44139;SDS011;29803;51.048;4.686;2022-09-02T07:43:23;45.97;;;6.40;;
44139;SDS011;29803;51.048;4.686;2022-09-02T07:45:54;11.02;;;2.95;;
44139;SDS011;29803;51.048;4.686;2022-09-02T07:48:25;10.38;;;2.83;;
44139;SDS011;29803;51.048;4.686;2022-09-02T07:50:58;8.68;;;3.30;;
44139;SDS011;29803;51.048;4.686;2022-09-02T07:53:29;8.35;;;2.47;;
44139;SDS011;29803;51.048;4.686;2022-09-02T07:56:01;8.48;;;2.65;;
44139;SDS011;29803;51.048;4.686;2022-09-02T07:58:32;9.88;;;3.40;;
44139;SDS011;29803;51.048;4.686;2022-09-02T08:01:03;4.97;;;2.58;;
44139;SDS011;29803;51.048;4.686;2022-09-02T08:03:34;6.47;;;2.88;;
44139;SDS011;29803;51.048;4.686;2022-09-02T08:06:07;9.52;;;2.90;;
44139;SDS011;29803;51.048;4.686;2022-09-02T08:08:38;8.68;;;2.90;;
44139;SDS011;29803;51.048;4.686;2022-09-02T08:11:09;11.05;;;2.80;;
44139;SDS011;29803;51.048;4.686;2022-09-02T08:13:41;6.40;;;2.80;;
44139;SDS011;29803;51.048;4.686;2022-09-02T08:16:12;4.72;;;2.55;;
44139;SDS011;29803;51.048;4.686;2022-09-02T08:18:43;6.50;;;2.40;;
44139;SDS011;29803;51.048;4.686;2022-09-02T08:21:13;6.53;;;2.80;;
44139;SDS011;29803;51.048;4.686;2022-09-02T08:23:44;5.70;;;3.03;;
44139;SDS011;29803;51.048;4.686;2022-09-02T08:26:17;4.75;;;2.42;;
44139;SDS011;29803;51.048;4.686;2022-09-02T08:28:47;7.90;;;3.10;;
44139;SDS011;29803;51.048;4.686;2022-09-02T08:31:18;7.88;;;2.67;;
44139;SDS011;29803;51.048;4.686;2022-09-02T08:33:49;6.47;;;2.50;;
44139;SDS011;29803;51.048;4.686;2022-09-02T08:36:19;6.82;;;2.72;;
44139;SDS011;29803;51.048;4.686;2022-09-02T08:38:50;3.63;;;2.63;;
44139;SDS011;29803;51.048;4.686;2022-09-02T08:43:57;7.50;;;2.85;;
44139;SDS011;29803;51.048;4.686;2022-09-02T08:46:29;8.70;;;3.08;;
44139;SDS011;29803;51.048;4.686;2022-09-02T08:54:29;6.70;;;2.72;;
44139;SDS011;29803;51.048;4.686;2022-09-02T08:57:05;9.40;;;2.75;;
44139;SDS011;29803;51.048;4.686;2022-09-02T08:59:38;6.75;;;2.40;;
44139;SDS011;29803;51.048;4.686;2022-09-02T09:16:40;3.80;;;2.25;;
44139;SDS011;29803;51.048;4.686;2022-09-02T09:25:11;5.43;;;2.80;;
44139;SDS011;29803;51.048;4.686;2022-09-02T09:27:44;2.50;;;2.17;;
44139;SDS011;29803;51.048;4.686;2022-09-02T09:30:15;3.92;;;2.47;;
44139;SDS011;29803;51.048;4.686;2022-09-02T09:32:46;6.10;;;2.30;;
44139;SDS011;29803;51.048;4.686;2022-09-02T09:35:23;9.77;;;2.40;;
44139;SDS011;29803;51.048;4.686;2022-09-02T09:37:55;9.95;;;2.70;;
44139;SDS011;29803;51.048;4.686;2022-09-02T09:40:28;4.95;;;2.13;;
44139;SDS011;29803;51.048;4.686;2022-09-02T09:45:33;8.93;;;2.47;;
44139;SDS011;29803;51.048;4.686;2022-09-02T09:51:09;4.57;;;2.20;;
44139;SDS011;29803;51.048;4.686;2022-09-02T09:53:40;3.60;;;2.38;;
44139;SDS011;29803;51.048;4.686;2022-09-02T09:58:44;5.13;;;2.10;;
44139;SDS011;29803;51.048;4.686;2022-09-02T10:03:51;4.97;;;2.30;;
44139;SDS011;29803;51.048;4.686;2022-09-02T10:12:02;4.47;;;1.88;;
44139;SDS011;29803;51.048;4.686;2022-09-02T10:14:36;5.57;;;2.08;;
44139;SDS011;29803;51.048;4.686;2022-09-02T10:32:19;5.07;;;2.15;;
44139;SDS011;29803;51.048;4.686;2022-09-02T10:40:12;4.88;;;2.00;;
44139;SDS011;29803;51.048;4.686;2022-09-02T10:42:47;2.00;;;1.73;;
44139;SDS011;29803;51.048;4.686;2022-09-02T10:45:27;4.28;;;2.35;;
44139;SDS011;29803;51.048;4.686;2022-09-02T10:48:07;3.28;;;1.85;;
44139;SDS011;29803;51.048;4.686;2022-09-02T10:56:57;2.88;;;1.70;;
44139;SDS011;29803;51.048;4.686;2022-09-02T11:02:25;3.35;;;1.70;;
44139;SDS011;29803;51.048;4.686;2022-09-02T11:11:07;8.23;;;1.75;;
44139;SDS011;29803;51.048;4.686;2022-09-02T11:13:48;2.45;;;1.80;;
44139;SDS011;29803;51.048;4.686;2022-09-02T11:19:15;3.42;;;1.60;;
44139;SDS011;29803;51.048;4.686;2022-09-02T11:21:55;3.83;;;1.60;;
44139;SDS011;29803;51.048;4.686;2022-09-02T11:24:34;3.85;;;1.30;;
44139;SDS011;29803;51.048;4.686;2022-09-02T11:27:27;4.10;;;1.60;;
44139;SDS011;29803;51.048;4.686;2022-09-02T11:30:17;2.42;;;1.30;;
44139;SDS011;29803;51.048;4.686;2022-09-02T11:33:12;3.13;;;1.88;;
44139;SDS011;29803;51.048;4.686;2022-09-02T11:35:48;8.27;;;1.45;;
44139;SDS011;29803;51.048;4.686;2022-09-02T11:47:01;4.45;;;1.63;;
44139;SDS011;29803;51.048;4.686;2022-09-02T11:52:58;6.05;;;1.80;;
44139;SDS011;29803;51.048;4.686;2022-09-02T11:55:34;5.32;;;1.60;;
44139;SDS011;29803;51.048;4.686;2022-09-02T11:58:09;4.85;;;1.67;;
44139;SDS011;29803;51.048;4.686;2022-09-02T12:03:52;4.78;;;1.65;;
44139;SDS011;29803;51.048;4.686;2022-09-02T12:06:23;5.68;;;1.40;;
44139;SDS011;29803;51.048;4.686;2022-09-02T12:08:55;4.55;;;1.40;;
44139;SDS011;29803;51.048;4.686;2022-09-02T12:17:01;5.53;;;1.42;;
44139;SDS011;29803;51.048;4.686;2022-09-02T12:22:25;1.48;;;1.30;;
44139;SDS011;29803;51.048;4.686;2022-09-02T12:25:01;2.70;;;1.40;;
44139;SDS011;29803;51.048;4.686;2022-09-02T12:27:33;10.88;;;1.40;;
44139;SDS011;29803;51.048;4.686;2022-09-02T12:30:06;5.40;;;1.50;;
44139;SDS011;29803;51.048;4.686;2022-09-02T12:35:49;2.00;;;1.30;;
44139;SDS011;29803;51.048;4.686;2022-09-02T12:38:22;3.08;;;1.70;;
44139;SDS011;29803;51.048;4.686;2022-09-02T12:46:59;3.45;;;1.50;;
44139;SDS011;29803;51.048;4.686;2022-09-02T12:55:17;2.92;;;1.40;;
44139;SDS011;29803;51.048;4.686;2022-09-02T12:57:54;4.40;;;1.35;;
44139;SDS011;29803;51.048;4.686;2022-09-02T13:00:38;2.88;;;1.50;;
44139;SDS011;29803;51.048;4.686;2022-09-02T13:03:39;2.70;;;1.75;;
44139;SDS011;29803;51.048;4.686;2022-09-02T13:24:40;9.55;;;1.75;;
44139;SDS011;29803;51.048;4.686;2022-09-02T13:30:13;1.67;;;1.27;;
44139;SDS011;29803;51.048;4.686;2022-09-02T13:35:39;3.95;;;1.50;;
44139;SDS011;29803;51.048;4.686;2022-09-02T13:38:12;4.63;;;1.42;;
44139;SDS011;29803;51.048;4.686;2022-09-02T13:40:43;2.92;;;1.33;;
44139;SDS011;29803;51.048;4.686;2022-09-02T13:45:45;4.80;;;1.67;;
44139;SDS011;29803;51.048;4.686;2022-09-02T13:51:10;5.45;;;1.38;;
44139;SDS011;29803;51.048;4.686;2022-09-02T13:53:43;2.22;;;1.73;;
44139;SDS011;29803;51.048;4.686;2022-09-02T13:56:21;2.40;;;1.45;;
44139;SDS011;29803;51.048;4.686;2022-09-02T13:58:54;4.35;;;1.58;;
44139;SDS011;29803;51.048;4.686;2022-09-02T14:01:27;2.50;;;1.40;;
44139;SDS011;29803;51.048;4.686;2022-09-02T14:06:47;5.55;;;1.48;;
44139;SDS011;29803;51.048;4.686;2022-09-02T14:09:20;1.67;;;1.25;;
44139;SDS011;29803;51.048;4.686;2022-09-02T14:11:54;3.95;;;1.35;;
44139;SDS011;29803;51.048;4.686;2022-09-02T14:14:27;2.40;;;1.42;;
44139;SDS011;29803;51.048;4.686;2022-09-02T14:19:47;2.67;;;1.60;;
44139;SDS011;29803;51.048;4.686;2022-09-02T14:22:21;3.42;;;1.60;;
44139;SDS011;29803;51.048;4.686;2022-09-02T14:24:55;4.85;;;1.67;;
44139;SDS011;29803;51.048;4.686;2022-09-02T14:27:25;3.38;;;1.25;;
44139;SDS011;29803;51.048;4.686;2022-09-02T14:29:56;3.50;;;1.95;;
44139;SDS011;29803;51.048;4.686;2022-09-02T14:32:27;2.67;;;1.42;;
44139;SDS011;29803;51.048;4.686;2022-09-02T14:35:11;1.60;;;1.50;;
44139;SDS011;29803;51.048;4.686;2022-09-02T14:43:49;1.65;;;1.30;;
44139;SDS011;29803;51.048;4.686;2022-09-02T14:48:56;2.47;;;1.70;;
44139;SDS011;29803;51.048;4.686;2022-09-02T14:51:36;5.40;;;1.55;;
44139;SDS011;29803;51.048;4.686;2022-09-02T14:54:08;4.32;;;1.80;;
44139;SDS011;29803;51.048;4.686;2022-09-02T14:56:42;3.88;;;1.65;;
44139;SDS011;29803;51.048;4.686;2022-09-02T14:59:14;6.00;;;1.65;;
44139;SDS011;29803;51.048;4.686;2022-09-02T15:01:45;4.18;;;2.40;;
44139;SDS011;29803;51.048;4.686;2022-09-02T15:04:19;5.40;;;1.70;;
44139;SDS011;29803;51.048;4.686;2022-09-02T15:06:50;6.32;;;1.63;;
44139;SDS011;29803;51.048;4.686;2022-09-02T15:09:21;5.30;;;1.75;;
44139;SDS011;29803;51.048;4.686;2022-09-02T15:11:52;2.33;;;1.30;;
44139;SDS011;29803;51.048;4.686;2022-09-02T15:14:23;1.88;;;1.50;;
44139;SDS011;29803;51.048;4.686;2022-09-02T15:16:54;7.32;;;2.05;;
44139;SDS011;29803;51.048;4.686;2022-09-02T15:19:24;5.30;;;1.83;;
44139;SDS011;29803;51.048;4.686;2022-09-02T15:21:54;3.78;;;1.67;;
44139;SDS011;29803;51.048;4.686;2022-09-02T15:24:25;3.00;;;1.67;;
44139;SDS011;29803;51.048;4.686;2022-09-02T15:26:56;4.35;;;1.50;;
44139;SDS011;29803;51.048;4.686;2022-09-02T15:29:28;12.55;;;4.20;;
44139;SDS011;29803;51.048;4.686;2022-09-02T15:31:58;8.80;;;1.73;;
44139;SDS011;29803;51.048;4.686;2022-09-02T15:34:30;5.25;;;1.50;;
44139;SDS011;29803;51.048;4.686;2022-09-02T15:37:01;16.20;;;2.17;;
44139;SDS011;29803;51.048;4.686;2022-09-02T15:39:32;4.70;;;1.73;;
44139;SDS011;29803;51.048;4.686;2022-09-02T15:42:03;3.00;;;1.67;;
44139;SDS011;29803;51.048;4.686;2022-09-02T15:44:33;2.50;;;1.52;;
44139;SDS011;29803;51.048;4.686;2022-09-02T15:47:04;6.88;;;2.03;;
44139;SDS011;29803;51.048;4.686;2022-09-02T15:49:34;4.15;;;2.33;;
44139;SDS011;29803;51.048;4.686;2022-09-02T15:52:05;5.32;;;1.70;;
44139;SDS011;29803;51.048;4.686;2022-09-02T15:54:36;3.03;;;1.88;;
44139;SDS011;29803;51.048;4.686;2022-09-02T15:57:06;4.50;;;1.67;;
44139;SDS011;29803;51.048;4.686;2022-09-02T15:59:37;2.17;;;1.80;;
44139;SDS011;29803;51.048;4.686;2022-09-02T16:02:07;7.25;;;1.80;;
44139;SDS011;29803;51.048;4.686;2022-09-02T16:04:38;3.42;;;1.60;;
44139;SDS011;29803;51.048;4.686;2022-09-02T16:07:09;6.20;;;1.77;;
44139;SDS011;29803;51.048;4.686;2022-09-02T16:09:40;5.57;;;1.60;;
44139;SDS011;29803;51.048;4.686;2022-09-02T16:12:10;2.28;;;1.60;;
44139;SDS011;29803;51.048;4.686;2022-09-02T16:14:41;3.63;;;1.70;;
44139;SDS011;29803;51.048;4.686;2022-09-02T16:17:12;7.30;;;1.85;;
44139;SDS011;29803;51.048;4.686;2022-09-02T16:19:42;2.20;;;1.55;;
44139;SDS011;29803;51.048;4.686;2022-09-02T16:22:13;2.65;;;1.70;;
44139;SDS011;29803;51.048;4.686;2022-09-02T16:24:43;3.22;;;1.58;;
44139;SDS011;29803;51.048;4.686;2022-09-02T16:27:14;6.70;;;1.90;;
44139;SDS011;29803;51.048;4.686;2022-09-02T16:30:04;10.13;;;1.60;;
44139;SDS011;29803;51.048;4.686;2022-09-02T16:32:35;3.88;;;1.42;;
44139;SDS011;29803;51.048;4.686;2022-09-02T16:35:06;6.80;;;1.67;;
44139;SDS011;29803;51.048;4.686;2022-09-02T16:37:37;3.30;;;1.50;;
44139;SDS011;29803;51.048;4.686;2022-09-02T16:40:08;2.78;;;1.65;;
44139;SDS011;29803;51.048;4.686;2022-09-02T16:42:39;1.80;;;1.70;;
44139;SDS011;29803;51.048;4.686;2022-09-02T16:45:10;5.07;;;1.70;;
44139;SDS011;29803;51.048;4.686;2022-09-02T16:47:40;3.40;;;1.65;;
44139;SDS011;29803;51.048;4.686;2022-09-02T16:50:11;3.25;;;1.30;;
44139;SDS011;29803;51.048;4.686;2022-09-02T16:52:43;1.80;;;1.50;;
44139;SDS011;29803;51.048;4.686;2022-09-02T16:55:13;5.18;;;1.40;;
44139;SDS011;29803;51.048;4.686;2022-09-02T16:57:47;2.17;;;1.73;;
44139;SDS011;29803;51.048;4.686;2022-09-02T17:00:18;6.47;;;1.80;;
44139;SDS011;29803;51.048;4.686;2022-09-02T17:02:49;6.60;;;1.63;;
44139;SDS011;29803;51.048;4.686;2022-09-02T17:05:19;4.65;;;1.80;;
44139;SDS011;29803;51.048;4.686;2022-09-02T17:07:50;6.22;;;1.75;;
44139;SDS011;29803;51.048;4.686;2022-09-02T17:10:30;5.10;;;1.52;;
44139;SDS011;29803;51.048;4.686;2022-09-02T17:13:19;4.65;;;1.58;;
44139;SDS011;29803;51.048;4.686;2022-09-02T17:15:50;4.72;;;1.80;;
44139;SDS011;29803;51.048;4.686;2022-09-02T17:18:21;3.70;;;1.30;;
44139;SDS011;29803;51.048;4.686;2022-09-02T17:20:52;2.45;;;1.40;;
44139;SDS011;29803;51.048;4.686;2022-09-02T17:23:46;5.30;;;1.70;;
44139;SDS011;29803;51.048;4.686;2022-09-02T17:26:18;5.97;;;1.52;;
44139;SDS011;29803;51.048;4.686;2022-09-02T17:28:51;2.85;;;1.42;;
44139;SDS011;29803;51.048;4.686;2022-09-02T17:34:12;3.80;;;1.52;;
44139;SDS011;29803;51.048;4.686;2022-09-02T17:36:44;6.15;;;1.45;;
44139;SDS011;29803;51.048;4.686;2022-09-02T17:39:15;3.92;;;1.80;;
44139;SDS011;29803;51.048;4.686;2022-09-02T17:41:47;7.07;;;1.80;;
44139;SDS011;29803;51.048;4.686;2022-09-02T17:44:29;8.23;;;1.77;;
44139;SDS011;29803;51.048;4.686;2022-09-02T17:47:17;6.82;;;2.05;;
44139;SDS011;29803;51.048;4.686;2022-09-02T17:49:51;4.15;;;1.92;;
44139;SDS011;29803;51.048;4.686;2022-09-02T17:52:22;4.30;;;1.67;;
44139;SDS011;29803;51.048;4.686;2022-09-02T17:54:53;2.63;;;1.40;;
44139;SDS011;29803;51.048;4.686;2022-09-02T17:57:44;8.60;;;1.67;;
44139;SDS011;29803;51.048;4.686;2022-09-02T18:00:29;1.98;;;1.23;;
44139;SDS011;29803;51.048;4.686;2022-09-02T18:03:05;4.90;;;1.50;;
44139;SDS011;29803;51.048;4.686;2022-09-02T18:08:17;3.53;;;1.40;;
44139;SDS011;29803;51.048;4.686;2022-09-02T18:10:55;1.83;;;1.45;;
44139;SDS011;29803;51.048;4.686;2022-09-02T18:27:52;6.57;;;1.67;;
44139;SDS011;29803;51.048;4.686;2022-09-02T18:30:30;2.30;;;1.52;;